Time;durP1;ratioP1;P1;durP2;ratioP2;P2;SDS_P1;SDS_P2;PMS_P1;PMS_P2;Temp;Humidity;BMP_temperature;BMP_pressure;BME280_temperature;BME280_humidity;BME280_pressure;Samples;Min_cycle;Max_cycle;Signal;HPM_P1;HPM_P2
2022/06/25 00:00:01;;;;;;;27.40;14.07;;;;;;;12.81;82.43;94522.36;1726315;83;21516;-55
2022/06/25 00:02:28;;;;;;;25.60;12.55;;;;;;;12.79;82.44;94517.92;1724344;82;21003;-54
2022/06/25 00:07:42;;;;;;;38.33;14.90;;;;;;;12.80;82.04;94526.35;1726671;83;21480;-54
2022/06/25 00:10:10;;;;;;;33.75;16.70;;;;;;;12.76;82.28;94529.90;1726508;82;21147;-54
2022/06/25 00:12:38;;;;;;;24.63;13.13;;;;;;;12.76;82.48;94531.28;1726572;82;21028;-54
2022/06/25 00:15:07;;;;;;;24.60;13.72;;;;;;;12.71;82.02;94530.55;1699910;83;20995;-54
2022/06/25 00:17:35;;;;;;;22.67;12.15;;;;;;;12.65;82.30;94533.16;1726820;83;21227;-54
2022/06/25 00:20:04;;;;;;;23.35;11.40;;;;;;;12.64;82.61;94536.37;1726562;83;20960;-53
2022/06/25 00:22:31;;;;;;;27.37;11.38;;;;;;;12.60;83.19;94526.91;1748974;81;21110;-53
2022/06/25 00:24:59;;;;;;;23.73;11.53;;;;;;;12.59;83.51;94534.25;1721589;83;21027;-54
2022/06/25 00:27:27;;;;;;;20.43;10.72;;;;;;;12.57;83.72;94529.81;1716556;83;21523;-53
2022/06/25 00:29:57;;;;;;;28.25;12.98;;;;;;;12.54;83.67;94538.40;1716475;83;21047;-54
2022/06/25 00:32:24;;;;;;;26.60;13.05;;;;;;;12.48;83.75;94529.08;1716678;83;21071;-54
2022/06/25 00:34:52;;;;;;;28.67;12.13;;;;;;;12.42;84.14;94535.83;1747024;81;21245;-54
2022/06/25 00:37:20;;;;;;;27.13;12.00;;;;;;;12.41;84.22;94537.06;1726431;83;21016;-54
2022/06/25 00:39:48;;;;;;;24.45;13.20;;;;;;;12.36;84.48;94534.94;1726599;83;21031;-54
2022/06/25 00:42:16;;;;;;;31.33;14.03;;;;;;;12.34;84.72;94535.23;1726549;83;21043;-54
2022/06/25 00:44:44;;;;;;;37.83;14.98;;;;;;;12.34;84.83;94536.61;1748877;81;21511;-54
2022/06/25 00:47:13;;;;;;;29.20;14.47;;;;;;;12.33;84.83;94534.48;1726640;82;21163;-53
2022/06/25 00:49:42;;;;;;;34.10;14.25;;;;;;;12.32;84.82;94539.86;1726463;82;21459;-54
2022/06/25 00:52:14;;;;;;;31.23;13.25;;;;;;;12.31;84.83;94536.95;1726643;83;21508;-54
2022/06/25 00:54:58;;;;;;;16.27;11.00;;;;;;;12.32;84.70;94535.72;1727591;82;20982;-54
2022/06/25 00:57:26;;;;;;;;;;;;;;;12.26;84.09;94534.78;1731303;83;21077;-54
2022/06/25 00:59:58;;;;;;;25.82;11.75;;;;;;;12.20;83.75;94535.27;1728389;83;20869;-54
2022/06/25 01:02:26;;;;;;;27.70;12.85;;;;;;;12.15;83.81;94536.50;1728780;83;21010;-54
2022/06/25 01:04:54;;;;;;;31.33;12.70;;;;;;;12.16;84.07;94535.27;1728409;82;20962;-55
2022/06/25 01:07:22;;;;;;;23.50;12.75;;;;;;;12.16;84.16;94538.02;1728354;82;21132;-55
2022/06/25 01:09:49;;;;;;;27.32;12.60;;;;;;;12.13;84.46;94534.82;1728481;82;20970;-54
2022/06/25 01:12:18;;;;;;;21.20;13.28;;;;;;;12.07;84.43;94537.42;1728246;83;21112;-54
2022/06/25 01:14:46;;;;;;;16.62;11.73;;;;;;;11.95;84.55;94533.45;1728331;83;21018;-54
2022/06/25 01:17:14;;;;;;;26.48;12.03;;;;;;;11.88;84.70;94531.02;1728375;83;21077;-54
2022/06/25 01:19:45;;;;;;;20.97;9.88;;;;;;;11.83;84.79;94535.15;1728348;83;21449;-54
2022/06/25 01:22:13;;;;;;;17.40;9.83;;;;;;;11.83;84.72;94535.75;1728551;83;21014;-54
2022/06/25 01:24:42;;;;;;;17.17;10.53;;;;;;;11.84;84.91;94538.66;1699804;83;21133;-54
2022/06/25 01:27:14;;;;;;;23.65;11.50;;;;;;;11.85;84.76;94539.59;1728360;83;21002;-53
2022/06/25 01:29:42;;;;;;;19.00;9.83;;;;;;;11.86;84.87;94539.73;1728990;83;21434;-55
2022/06/25 01:32:11;;;;;;;18.15;10.32;;;;;;;11.86;85.01;94549.39;1728395;83;21280;-53
2022/06/25 01:34:38;;;;;;;22.10;11.53;;;;;;;11.81;85.17;94543.72;1700341;83;21532;-54
2022/06/25 01:37:06;;;;;;;28.38;13.03;;;;;;;11.80;85.01;94549.86;1728152;83;21244;-54
2022/06/25 01:39:34;;;;;;;31.73;13.68;;;;;;;11.73;84.93;94550.14;1700024;83;20962;-54
2022/06/25 01:42:03;;;;;;;23.65;13.53;;;;;;;11.68;85.00;94548.00;1728761;83;20965;-54
2022/06/25 01:44:31;;;;;;;23.05;14.15;;;;;;;11.66;85.08;94551.05;1728908;83;21010;-53
2022/06/25 01:47:01;;;;;;;22.05;13.83;;;;;;;11.61;85.16;94548.91;1700429;83;21090;-54
2022/06/25 01:49:28;;;;;;;26.60;15.08;;;;;;;11.58;85.11;94554.75;1728468;83;21272;-55
2022/06/25 01:51:56;;;;;;;33.42;19.15;;;;;;;11.60;85.23;94550.14;1699939;83;21069;-54
2022/06/25 01:54:24;;;;;;;28.55;18.45;;;;;;;11.62;85.36;94551.22;1728482;83;21435;-54
2022/06/25 01:56:52;;;;;;;35.33;16.93;;;;;;;11.56;85.42;94543.39;1699033;83;21067;-55
2022/06/25 01:59:20;;;;;;;26.37;15.88;;;;;;;11.55;85.54;94543.84;1728597;83;21019;-54
2022/06/25 02:01:48;;;;;;;23.92;14.78;;;;;;;11.55;85.62;94548.72;1728310;82;21478;-53
2022/06/25 02:04:18;;;;;;;21.02;14.58;;;;;;;11.56;85.68;94550.28;1699914;83;21022;-54
2022/06/25 02:06:46;;;;;;;27.75;14.33;;;;;;;11.58;85.66;94551.21;1728723;83;21065;-54
2022/06/25 02:09:14;;;;;;;25.25;12.80;;;;;;;11.58;85.68;94550.61;1728413;83;20982;-54
2022/06/25 02:11:42;;;;;;;22.95;10.98;;;;;;;11.54;85.56;94551.33;1728776;83;21017;-54
2022/06/25 02:14:11;;;;;;;17.95;10.23;;;;;;;11.52;85.03;94555.15;1728274;83;21916;-53
2022/06/25 02:16:41;;;;;;;20.27;11.48;;;;;;;11.50;84.62;94552.72;1728434;83;21454;-54
2022/06/25 02:19:09;;;;;;;16.20;10.03;;;;;;;11.49;84.46;94549.19;1728192;82;21010;-54
2022/06/25 02:21:37;;;;;;;18.50;11.28;;;;;;;11.45;84.54;94552.70;1728684;83;21489;-54
2022/06/25 02:24:06;;;;;;;23.77;13.03;;;;;;;11.44;84.60;94557.28;1728386;83;20970;-54
2022/06/25 02:26:33;;;;;;;14.07;8.98;;;;;;;11.39;84.54;94555.89;1728123;83;21818;-54
2022/06/25 02:29:00;;;;;;;19.07;10.03;;;;;;;11.41;84.78;94560.95;1728484;83;21502;-54
2022/06/25 02:31:31;;;;;;;17.52;9.18;;;;;;;11.42;85.37;94563.27;1728396;83;20970;-54
2022/06/25 02:33:59;;;;;;;19.65;10.10;;;;;;;11.43;85.10;94562.04;1728445;83;21014;-53
2022/06/25 02:36:28;;;;;;;27.52;11.53;;;;;;;11.38;85.01;94564.00;1728361;83;21061;-53
2022/06/25 02:38:55;;;;;;;19.55;10.60;;;;;;;11.31;85.23;94558.79;1728217;82;21866;-53
2022/06/25 02:41:23;;;;;;;17.05;10.43;;;;;;;11.28;85.37;94550.67;1728315;83;20967;-53
2022/06/25 02:43:51;;;;;;;22.40;9.95;;;;;;;11.29;85.39;94557.11;1728378;83;20965;-53
2022/06/25 02:46:20;;;;;;;16.65;11.08;;;;;;;11.27;85.20;94559.55;1727252;83;20983;-52
2022/06/25 02:48:50;;;;;;;21.85;11.20;;;;;;;11.24;85.05;94556.94;1727654;82;20970;-52
2022/06/25 02:51:18;;;;;;;18.85;10.45;;;;;;;11.18;85.18;94554.01;1699749;82;22137;-53
2022/06/25 02:53:45;;;;;;;15.08;10.15;;;;;;;11.18;85.24;94558.77;1727853;83;20967;-54
2022/06/25 02:58:59;;;;;;;15.30;9.33;;;;;;;11.19;85.18;94555.55;1726926;83;21049;-53
2022/06/25 03:01:29;;;;;;;14.50;9.18;;;;;;;11.21;85.27;94561.36;1697059;83;21073;-53
2022/06/25 03:03:57;;;;;;;19.40;10.35;;;;;;;11.22;85.54;94558.78;1726667;83;21222;-53
2022/06/25 03:06:25;;;;;;;18.27;10.85;;;;;;;11.27;85.78;94555.42;1726729;83;21560;-53
2022/06/25 03:08:53;;;;;;;18.02;10.80;;;;;;;11.30;85.34;94555.88;1726783;83;21006;-52
2022/06/25 03:11:21;;;;;;;28.05;12.15;;;;;;;11.31;85.12;94556.04;1726831;83;21002;-54
2022/06/25 03:13:49;;;;;;;18.62;11.40;;;;;;;11.30;85.08;94557.86;1726840;83;21065;-54
2022/06/25 03:16:19;;;;;;;24.98;11.08;;;;;;;11.29;85.25;94554.95;1726594;83;21482;-54
2022/06/25 03:18:50;;;;;;;22.73;12.25;;;;;;;11.30;84.96;94553.73;1726745;83;21046;-53
2022/06/25 03:21:25;;;;;;;22.55;12.20;;;;;;;11.30;84.92;94556.48;1724056;83;21069;-53
2022/06/25 03:23:58;;;;;;;19.15;10.82;;;;;;;11.33;84.87;94556.97;1726759;83;20982;-53
2022/06/25 03:26:27;;;;;;;18.85;11.93;;;;;;;11.38;84.66;94557.73;1701538;83;21123;-53
2022/06/25 03:28:57;;;;;;;23.47;10.80;;;;;;;11.40;84.47;94562.17;1729571;83;21134;-53
2022/06/25 03:31:25;;;;;;;20.77;10.82;;;;;;;11.39;84.35;94560.02;1729587;83;21045;-53
2022/06/25 03:33:55;;;;;;;15.40;10.68;;;;;;;11.41;84.51;94562.33;1729774;83;20962;-53
2022/06/25 03:36:24;;;;;;;21.02;10.15;;;;;;;11.47;84.60;94568.16;1728380;83;20990;-52
2022/06/25 03:38:55;;;;;;;18.42;10.98;;;;;;;11.54;84.46;94566.48;1729457;83;20975;-53
2022/06/25 03:41:35;;;;;;;17.40;9.93;;;;;;;11.61;84.34;94564.85;1729877;83;21125;-53
2022/06/25 03:44:21;;;;;;;21.17;10.48;;;;;;;11.70;84.60;94564.84;1729800;83;21445;-53
2022/06/25 03:46:49;;;;;;;13.45;9.80;;;;;;;11.78;84.48;94563.33;1729609;83;20993;-51
2022/06/25 03:49:18;;;;;;;15.08;9.80;;;;;;;11.86;84.42;94559.03;1729550;83;21002;-52
2022/06/25 03:51:57;;;;;;;17.00;8.93;;;;;;;11.94;84.32;94563.62;1729430;83;21591;-54
2022/06/25 03:54:25;;;;;;;13.93;8.30;;;;;;;12.03;84.30;94557.50;1721730;83;21148;-54
2022/06/25 03:56:53;;;;;;;10.82;8.03;;;;;;;12.18;84.20;94562.55;1714724;83;21004;-55
2022/06/25 03:59:23;;;;;;;16.85;10.10;;;;;;;12.30;84.02;94558.83;1665965;86;20996;-54
2022/06/25 04:01:52;;;;;;;15.32;10.00;;;;;;;12.39;83.85;94550.55;1706764;84;21006;-54
2022/06/25 04:04:20;;;;;;;13.98;8.88;;;;;;;12.49;83.64;94556.19;1706708;84;21063;-54
2022/06/25 04:06:48;;;;;;;14.07;8.90;;;;;;;12.55;83.32;94548.83;1706927;82;21796;-53
2022/06/25 04:09:16;;;;;;;14.38;10.05;;;;;;;12.56;83.06;94550.36;1680693;84;21045;-54
2022/06/25 04:11:44;;;;;;;10.90;8.08;;;;;;;12.64;83.14;94548.80;1707164;82;21026;-54
2022/06/25 04:14:12;;;;;;;18.15;8.90;;;;;;;12.77;83.27;94543.25;1706899;84;21125;-53
2022/06/25 04:16:40;;;;;;;11.57;8.00;;;;;;;12.89;82.73;94557.45;1706710;82;20998;-53
2022/06/25 04:19:16;;;;;;;12.73;9.15;;;;;;;12.97;82.45;94555.93;1706877;83;21265;-54
2022/06/25 04:21:47;;;;;;;13.85;8.85;;;;;;;13.05;82.22;94557.73;1707220;84;21422;-53
2022/06/25 04:24:15;;;;;;;18.45;9.20;;;;;;;13.14;81.97;94556.30;1707134;82;20954;-53
2022/06/25 04:26:44;;;;;;;15.53;9.48;;;;;;;13.23;81.76;94555.64;1715027;83;20959;-53
2022/06/25 04:29:12;;;;;;;16.27;9.45;;;;;;;13.36;81.61;94560.34;1719451;83;21066;-52
2022/06/25 04:31:56;;;;;;;14.47;8.95;;;;;;;13.47;81.10;94566.72;1718540;83;21130;-53
2022/06/25 04:34:30;;;;;;;16.85;10.03;;;;;;;13.52;80.63;94559.16;1716008;82;21034;-53
2022/06/25 04:36:58;;;;;;;14.43;9.03;;;;;;;13.59;80.42;94559.58;1719954;83;21030;-53
2022/06/25 04:39:28;;;;;;;14.85;8.98;;;;;;;13.69;79.84;94562.44;1672016;84;21022;-53
2022/06/25 04:41:57;;;;;;;14.55;8.03;;;;;;;13.73;79.47;94558.87;1697760;83;21307;-53
2022/06/25 04:44:27;;;;;;;12.13;8.10;;;;;;;13.81;79.36;94556.52;1697576;84;21209;-53
2022/06/25 04:46:56;;;;;;;15.88;9.25;;;;;;;13.88;79.08;94556.14;1697610;84;21085;-54
2022/06/25 04:49:26;;;;;;;19.23;8.68;;;;;;;13.94;78.85;94543.18;1695773;83;21053;-53
2022/06/25 04:51:54;;;;;;;19.17;8.80;;;;;;;14.01;78.54;94544.22;1697467;83;21561;-53
2022/06/25 04:54:22;;;;;;;14.00;8.15;;;;;;;14.08;78.35;94550.75;1698218;84;21542;-54
2022/06/25 04:56:52;;;;;;;13.25;7.92;;;;;;;14.19;78.05;94552.39;1698655;84;21143;-53
2022/06/25 04:59:20;;;;;;;10.88;8.13;;;;;;;14.26;77.88;94543.70;1699068;84;21046;-54
2022/06/25 05:01:56;;;;;;;20.43;8.25;;;;;;;14.37;77.68;94548.08;1699343;83;20978;-53
2022/06/25 05:04:29;;;;;;;18.57;7.40;;;;;;;14.47;77.21;94553.80;1672286;84;21004;-52
2022/06/25 05:06:58;;;;;;;13.25;7.97;;;;;;;14.58;76.78;94550.45;1699279;83;22211;-54
2022/06/25 05:09:28;;;;;;;13.70;7.25;;;;;;;14.67;76.35;94553.89;1699088;84;21919;-54
2022/06/25 05:11:56;;;;;;;15.38;7.33;;;;;;;14.76;76.18;94548.27;1698963;84;21537;-54
2022/06/25 05:14:25;;;;;;;13.38;6.85;;;;;;;14.90;75.91;94549.48;1699054;83;21087;-53
2022/06/25 05:16:54;;;;;;;13.88;6.87;;;;;;;15.00;75.31;94548.16;1671336;84;21450;-54
2022/06/25 05:19:22;;;;;;;10.75;6.50;;;;;;;15.08;74.84;94543.13;1699092;83;21451;-54
2022/06/25 05:21:50;;;;;;;10.23;7.20;;;;;;;15.21;74.75;94545.58;1699016;84;21451;-54
2022/06/25 05:24:17;;;;;;;11.75;6.42;;;;;;;15.34;74.58;94542.65;1698971;84;21010;-53
2022/06/25 05:26:46;;;;;;;12.78;6.80;;;;;;;15.50;74.26;94544.90;1694011;84;21619;-55
2022/06/25 05:29:14;;;;;;;10.90;5.95;;;;;;;15.69;73.99;94542.00;1659858;86;21082;-52
2022/06/25 05:31:43;;;;;;;10.18;7.45;;;;;;;15.89;73.34;94537.09;1689454;85;20979;-53
2022/06/25 05:34:11;;;;;;;13.83;6.62;;;;;;;16.04;72.42;94535.75;1640832;86;21186;-54
2022/06/25 05:36:39;;;;;;;12.73;6.72;;;;;;;16.12;71.61;94531.30;1689337;84;21062;-54
2022/06/25 05:39:10;;;;;;;15.55;6.05;;;;;;;16.16;71.11;94525.54;1659988;86;21074;-53
2022/06/25 05:41:37;;;;;;;12.43;7.47;;;;;;;16.18;70.85;94527.97;1669617;85;21026;-54
2022/06/25 05:44:05;;;;;;;11.12;7.97;;;;;;;16.24;70.86;94534.34;1659865;86;21074;-53
2022/06/25 05:46:33;;;;;;;10.10;6.60;;;;;;;16.32;70.71;94537.59;1689191;84;21282;-52
2022/06/25 05:49:01;;;;;;;13.80;6.90;;;;;;;16.43;70.64;94531.41;1663268;85;20975;-54
2022/06/25 05:51:29;;;;;;;13.55;6.62;;;;;;;16.56;70.55;94528.38;1689357;83;21459;-54
2022/06/25 05:53:57;;;;;;;8.90;5.95;;;;;;;16.74;70.04;94527.30;1640705;86;21002;-54
2022/06/25 05:56:25;;;;;;;6.87;5.40;;;;;;;16.96;69.64;94520.53;1723727;83;21636;-55
2022/06/25 05:58:55;;;;;;;9.40;5.72;;;;;;;17.12;68.75;94527.59;1723585;83;21957;-55
2022/06/25 06:01:23;;;;;;;8.28;5.42;;;;;;;17.26;68.05;94525.95;1723840;82;20950;-53
2022/06/25 06:03:51;;;;;;;11.97;5.70;;;;;;;17.38;67.30;94526.17;1723452;83;21002;-53
2022/06/25 06:06:19;;;;;;;8.43;5.67;;;;;;;17.46;66.82;94525.21;1723671;83;21050;-55
2022/06/25 06:08:47;;;;;;;11.40;5.17;;;;;;;17.50;66.52;94516.64;1723852;83;21554;-53
2022/06/25 06:11:16;;;;;;;9.93;6.22;;;;;;;17.59;65.99;94516.42;1723624;83;21329;-56
2022/06/25 06:13:44;;;;;;;6.47;5.03;;;;;;;17.66;65.61;94518.77;1723909;82;21640;-53
2022/06/25 06:16:12;;;;;;;10.63;6.28;;;;;;;17.79;65.85;94520.48;1723562;83;21018;-54
2022/06/25 06:18:40;;;;;;;7.67;5.17;;;;;;;17.92;65.84;94518.77;1723602;82;21446;-56
2022/06/25 06:21:09;;;;;;;14.03;6.30;;;;;;;18.02;65.19;94516.52;1723945;83;21002;-55
2022/06/25 06:23:38;;;;;;;10.03;6.03;;;;;;;18.10;64.59;94511.37;1723881;83;21298;-55
2022/06/25 06:26:06;;;;;;;6.70;5.65;;;;;;;18.20;64.21;94518.22;1723731;83;21565;-56
2022/06/25 06:28:34;;;;;;;12.73;5.25;;;;;;;18.32;63.75;94510.81;1726757;82;20986;-54
2022/06/25 06:31:02;;;;;;;9.25;5.22;;;;;;;18.42;63.25;94517.69;1726507;82;21099;-53
2022/06/25 06:33:30;;;;;;;7.55;5.58;;;;;;;18.57;62.81;94514.67;1726938;82;20967;-54
2022/06/25 06:35:59;;;;;;;10.40;4.97;;;;;;;18.67;62.58;94508.35;1726678;83;21268;-54
2022/06/25 06:38:27;;;;;;;10.50;4.85;;;;;;;18.79;62.61;94509.89;1726521;83;21006;-53
2022/06/25 06:40:54;;;;;;;6.90;4.72;;;;;;;18.93;61.87;94508.89;1726998;83;21062;-52
2022/06/25 06:43:22;;;;;;;7.50;5.22;;;;;;;19.06;61.31;94509.78;1726636;83;21071;-54
2022/06/25 06:45:51;;;;;;;6.40;4.87;;;;;;;19.20;60.99;94497.63;1726769;82;21006;-54
2022/06/25 06:48:19;;;;;;;4.20;3.80;;;;;;;19.35;60.71;94500.27;1726653;83;21725;-52
2022/06/25 06:50:47;;;;;;;11.60;4.95;;;;;;;19.47;60.46;94496.82;1726989;83;21001;-53
2022/06/25 06:53:15;;;;;;;14.15;4.83;;;;;;;19.62;60.00;94510.63;1726639;83;21506;-53
2022/06/25 06:55:42;;;;;;;8.08;4.67;;;;;;;19.78;59.56;94500.03;1726284;83;20955;-54
2022/06/25 06:58:11;;;;;;;5.47;3.72;;;;;;;19.91;59.46;94503.05;1726792;82;21014;-54
2022/06/25 07:00:38;;;;;;;14.98;4.78;;;;;;;20.02;58.73;94500.25;1700028;83;21472;-56
2022/06/25 07:03:07;;;;;;;9.20;4.87;;;;;;;20.14;58.56;94494.09;1726525;83;21069;-54
2022/06/25 07:05:35;;;;;;;7.60;4.22;;;;;;;20.31;58.49;94493.38;1726351;83;21037;-54
2022/06/25 07:08:04;;;;;;;9.33;4.08;;;;;;;20.49;58.01;94494.80;1726615;83;20947;-54
2022/06/25 07:10:33;;;;;;;7.33;4.35;;;;;;;20.65;57.63;94493.94;1699956;83;21006;-56
2022/06/25 07:13:02;;;;;;;5.37;3.55;;;;;;;20.84;57.70;94494.84;1726818;83;21199;-56
2022/06/25 07:15:30;;;;;;;5.50;3.55;;;;;;;21.03;57.33;94490.13;1726352;83;20994;-55
2022/06/25 07:17:59;;;;;;;6.47;3.83;;;;;;;21.20;56.40;94494.31;1726303;82;20986;-55
2022/06/25 07:20:27;;;;;;;5.50;4.03;;;;;;;21.38;56.50;94497.07;1726302;83;21089;-55
2022/06/25 07:22:55;;;;;;;6.37;3.98;;;;;;;21.56;56.18;94494.98;1726724;83;20958;-55
2022/06/25 07:25:23;;;;;;;12.20;3.85;;;;;;;21.72;54.67;94481.49;1726727;83;21130;-54
2022/06/25 07:27:51;;;;;;;10.65;3.60;;;;;;;21.85;53.92;94483.75;1700790;81;21431;-54
2022/06/25 07:30:19;;;;;;;4.30;3.27;;;;;;;21.99;52.96;94479.03;1689162;85;21506;-56
2022/06/25 07:32:47;;;;;;;9.80;3.55;;;;;;;22.11;52.96;94474.91;1689260;85;21233;-55
2022/06/25 07:35:15;;;;;;;5.10;3.22;;;;;;;22.24;52.29;94475.00;1689184;84;20991;-55
2022/06/25 07:37:42;;;;;;;3.50;2.90;;;;;;;22.39;52.27;94472.55;1689380;84;21357;-55
2022/06/25 07:40:12;;;;;;;4.87;3.12;;;;;;;22.53;51.41;94468.53;1689062;85;20959;-55
2022/06/25 07:42:41;;;;;;;4.65;3.45;;;;;;;22.69;51.09;94468.91;1689251;84;21018;-54
2022/06/25 07:45:10;;;;;;;2.72;2.52;;;;;;;22.81;50.98;94471.67;1689087;85;21019;-55
2022/06/25 07:47:38;;;;;;;5.33;3.35;;;;;;;22.92;50.12;94463.73;1689217;84;20983;-54
2022/06/25 07:52:56;;;;;;;4.53;3.75;;;;;;;23.14;49.51;94464.16;1689059;85;21046;-54
2022/06/25 07:55:27;;;;;;;5.72;3.40;;;;;;;23.27;49.38;94469.83;1688977;85;20947;-57
2022/06/25 07:57:55;;;;;;;7.62;3.30;;;;;;;23.37;49.05;94462.48;1689340;85;21407;-56
2022/06/25 08:00:23;;;;;;;4.70;2.98;;;;;;;23.49;47.96;94464.45;1671810;85;21478;-54
2022/06/25 08:02:51;;;;;;;6.67;2.72;;;;;;;23.61;46.96;94465.11;1689314;84;21236;-54
2022/06/25 08:05:19;;;;;;;5.47;3.15;;;;;;;23.71;47.40;94469.66;1689367;85;20999;-54
2022/06/25 08:07:48;;;;;;;3.00;2.67;;;;;;;23.80;45.78;94464.39;1689216;84;21026;-56
2022/06/25 08:10:17;;;;;;;3.70;2.70;;;;;;;23.89;46.40;94465.39;1689077;84;21097;-56
2022/06/25 08:12:46;;;;;;;5.72;3.30;;;;;;;23.99;45.70;94460.19;1689070;85;21089;-54
2022/06/25 08:15:16;;;;;;;5.87;2.58;;;;;;;24.17;45.64;94469.82;1689021;85;21145;-56
2022/06/25 08:17:44;;;;;;;9.28;2.50;;;;;;;24.31;44.04;94469.25;1689271;85;20968;-57
2022/06/25 08:20:11;;;;;;;4.72;2.20;;;;;;;24.45;43.75;94470.75;1671265;85;21420;-56
2022/06/25 08:22:40;;;;;;;2.40;2.20;;;;;;;24.55;40.99;94462.64;1689253;84;21042;-57
2022/06/25 08:25:07;;;;;;;2.60;2.27;;;;;;;24.55;40.05;94464.05;1689172;84;20999;-55
2022/06/25 08:27:49;;;;;;;5.08;3.00;;;;;;;24.54;40.65;94463.95;1701430;83;21208;-54
2022/06/25 08:30:22;;;;;;;5.47;2.02;;;;;;;24.59;42.14;94463.06;1718199;82;21025;-54
2022/06/25 08:32:50;;;;;;;3.62;2.47;;;;;;;24.69;40.87;94466.91;1718093;83;21010;-53
2022/06/25 08:35:18;;;;;;;6.70;3.35;;;;;;;24.69;42.27;94455.66;1718123;82;21062;-55
2022/06/25 08:37:47;;;;;;;6.97;2.70;;;;;;;24.77;42.52;94453.70;1718492;82;21520;-54
2022/06/25 08:40:17;;;;;;;3.90;2.75;;;;;;;24.93;43.31;94455.38;1718330;83;21777;-55
2022/06/25 08:42:44;;;;;;;4.15;2.72;;;;;;;25.04;42.49;94455.86;1718713;82;20966;-55
2022/06/25 08:45:12;;;;;;;2.60;2.40;;;;;;;25.16;43.59;94453.52;1718048;83;21451;-55
2022/06/25 08:47:48;;;;;;;4.28;2.72;;;;;;;25.25;43.00;94452.42;1718310;83;21023;-54
2022/06/25 08:50:18;;;;;;;4.60;2.25;;;;;;;25.35;42.90;94452.06;1717927;83;21089;-54
2022/06/25 08:52:51;;;;;;;7.10;2.47;;;;;;;25.47;41.73;94439.17;1718572;83;21095;-54
2022/06/25 08:55:33;;;;;;;4.55;2.40;;;;;;;25.57;41.61;94442.26;1705508;83;21050;-55
2022/06/25 08:58:01;;;;;;;6.83;2.50;;;;;;;25.63;40.77;94447.11;1650499;86;20972;-54
2022/06/25 09:00:35;;;;;;;2.67;2.08;;;;;;;25.69;41.57;94447.71;1653315;85;21007;-56
2022/06/25 09:03:03;;;;;;;4.72;2.12;;;;;;;25.74;41.49;94451.80;1653529;86;21527;-55
2022/06/25 09:05:35;;;;;;;4.53;2.35;;;;;;;25.84;39.96;94438.72;1632694;86;21777;-57
2022/06/25 09:08:05;;;;;;;2.58;1.95;;;;;;;25.91;39.70;94444.31;1653129;86;21039;-54
2022/06/25 09:10:33;;;;;;;6.20;2.52;;;;;;;25.94;38.65;94449.61;1653352;86;21439;-56
2022/06/25 09:13:04;;;;;;;3.72;1.92;;;;;;;25.90;39.32;94445.63;1653536;86;21515;-55
2022/06/25 09:15:37;;;;;;;4.17;2.33;;;;;;;25.91;39.35;94447.13;1632576;86;21156;-55
2022/06/25 09:18:12;;;;;;;;;;;;;;;25.99;39.41;94448.05;1655997;86;21112;-57
2022/06/25 09:21:07;;;;;;;2.30;2.10;;;;;;;26.07;38.19;94453.07;1703855;84;20145;-54
2022/06/25 09:23:55;;;;;;;2.90;2.27;;;;;;;26.15;39.11;94459.50;1670450;86;21054;-54
2022/06/25 09:26:23;;;;;;;4.08;2.20;;;;;;;26.24;37.46;94444.89;1632501;86;21108;-55
2022/06/25 09:28:51;;;;;;;4.60;2.27;;;;;;;26.30;38.07;94450.38;1653261;84;20990;-54
2022/06/25 09:31:37;;;;;;;2.35;1.90;;;;;;;26.39;37.91;94452.66;1632850;86;21121;-54
2022/06/25 09:34:06;;;;;;;4.22;2.12;;;;;;;26.47;38.32;94446.41;1653125;86;21019;-54
2022/06/25 09:36:34;;;;;;;4.30;1.98;;;;;;;26.51;37.55;94441.92;1632935;86;21015;-55
2022/06/25 09:39:02;;;;;;;2.92;2.33;;;;;;;26.54;36.60;94437.24;1651057;85;21027;-56
2022/06/25 09:41:50;;;;;;;3.15;1.70;;;;;;;26.56;37.27;94441.03;1653601;85;21027;-53
2022/06/25 09:44:19;;;;;;;5.85;2.10;;;;;;;26.65;37.56;94441.89;1653293;86;21495;-55
2022/06/25 09:46:57;;;;;;;3.85;1.98;;;;;;;26.72;37.21;94435.53;1653175;86;21050;-53
2022/06/25 09:49:25;;;;;;;4.53;2.45;;;;;;;26.80;36.91;94438.34;1650902;86;20962;-54
2022/06/25 09:52:01;;;;;;;5.28;2.62;;;;;;;26.86;36.70;94432.63;1632748;86;21015;-54
2022/06/25 09:54:29;;;;;;;5.47;2.60;;;;;;;26.96;37.71;94429.37;1678791;84;21159;-55
2022/06/25 09:56:57;;;;;;;2.33;2.05;;;;;;;27.10;37.17;94432.16;1642522;85;21309;-54
2022/06/25 09:59:25;;;;;;;6.92;2.50;;;;;;;27.25;35.97;94434.25;1657103;85;21016;-55
2022/06/25 10:01:53;;;;;;;5.50;1.95;;;;;;;27.36;36.08;94424.73;1687669;83;21024;-56
2022/06/25 10:04:22;;;;;;;2.72;2.00;;;;;;;27.47;34.49;94418.72;1636113;86;20987;-55
2022/06/25 10:06:50;;;;;;;6.30;2.20;;;;;;;27.51;35.15;94421.92;1686464;84;21018;-54
2022/06/25 10:09:19;;;;;;;2.55;1.90;;;;;;;27.49;36.27;94423.15;1636253;86;21778;-54
2022/06/25 10:11:47;;;;;;;4.08;2.27;;;;;;;27.51;35.62;94416.27;1658528;86;21524;-55
2022/06/25 10:14:15;;;;;;;5.40;2.17;;;;;;;27.50;35.90;94420.41;1650800;86;21017;-55
2022/06/25 10:16:44;;;;;;;2.67;2.27;;;;;;;27.53;36.07;94420.69;1669871;86;20977;-55
2022/06/25 10:19:12;;;;;;;4.42;2.60;;;;;;;27.56;35.82;94417.41;1670169;86;21506;-55
2022/06/25 10:21:41;;;;;;;4.83;2.95;;;;;;;27.63;37.30;94411.75;1670120;84;21111;-55
2022/06/25 10:24:08;;;;;;;6.95;2.10;;;;;;;27.74;36.90;94413.46;1714411;82;21538;-55
2022/06/25 10:26:37;;;;;;;4.05;2.30;;;;;;;27.81;36.37;94406.36;1705797;83;21063;-55
2022/06/25 10:29:31;;;;;;;3.70;2.60;;;;;;;27.85;36.49;94412.41;1687320;85;21533;-54
2022/06/25 10:32:18;;;;;;;6.65;2.30;;;;;;;27.90;35.78;94412.86;1683249;84;21569;-54
2022/06/25 10:34:58;;;;;;;4.65;2.62;;;;;;;28.09;36.87;94411.78;1678107;84;21347;-54
2022/06/25 10:37:25;;;;;;;2.67;2.12;;;;;;;28.29;36.54;94406.53;1657007;85;20959;-54
2022/06/25 10:39:54;;;;;;;3.15;2.37;;;;;;;28.53;37.41;94406.66;1693305;84;21127;-55
2022/06/25 10:45:19;;;;;;;4.97;2.52;;;;;;;28.91;35.65;94410.75;1691629;84;20975;-55
2022/06/25 10:47:52;;;;;;;5.67;2.50;;;;;;;29.22;34.30;94412.05;1663744;86;21299;-57
2022/06/25 10:50:31;;;;;;;3.40;2.25;;;;;;;29.46;34.96;94414.16;1664029;86;21041;-54
2022/06/25 10:53:10;;;;;;;6.25;2.75;;;;;;;29.63;35.11;94413.55;1663834;86;21454;-55
2022/06/25 10:55:55;;;;;;;4.47;2.27;;;;;;;29.87;34.15;94407.77;1665455;86;21027;-57
2022/06/25 10:58:27;;;;;;;4.90;2.20;;;;;;;30.14;34.45;94410.16;1665141;86;21014;-54
2022/06/25 11:01:00;;;;;;;5.70;2.37;;;;;;;30.44;33.53;94403.38;1665305;86;21830;-54
2022/06/25 11:03:34;;;;;;;4.83;1.92;;;;;;;30.68;32.63;94403.30;1665317;86;21053;-54
2022/06/25 11:06:21;;;;;;;7.45;2.75;;;;;;;30.80;32.08;94409.97;1665590;86;20970;-54
2022/06/25 11:08:49;;;;;;;6.03;2.30;;;;;;;30.88;32.14;94410.61;1665193;86;21017;-55
2022/06/25 11:11:26;;;;;;;2.62;2.40;;;;;;;30.88;32.22;94404.92;1665143;86;21046;-53
2022/06/25 11:13:54;;;;;;;2.72;2.27;;;;;;;30.91;31.08;94405.19;1665334;86;21247;-56
2022/06/25 11:16:22;;;;;;;3.00;2.70;;;;;;;31.00;31.33;94409.41;1665485;86;21016;-56
2022/06/25 11:18:57;;;;;;;3.92;2.15;;;;;;;31.24;32.01;94409.27;1665194;86;20998;-54
2022/06/25 11:21:38;;;;;;;4.92;1.90;;;;;;;31.49;32.59;94407.67;1639022;86;21041;-54
2022/06/25 11:24:15;;;;;;;8.25;2.30;;;;;;;31.72;30.45;94408.84;1664729;86;21042;-55
2022/06/25 11:29:41;;;;;;;6.53;2.08;;;;;;;32.12;29.89;94401.95;1657161;86;20959;-56
2022/06/25 11:32:08;;;;;;;4.97;1.90;;;;;;;32.45;30.18;94413.04;1655823;86;21071;-55
2022/06/25 11:34:38;;;;;;;5.58;2.20;;;;;;;32.84;29.43;94400.30;1655695;86;21086;-55
2022/06/25 11:37:11;;;;;;;6.58;1.92;;;;;;;33.02;27.67;94404.47;1655903;86;21054;-55
2022/06/25 11:39:40;;;;;;;2.20;2.00;;;;;;;33.13;29.14;94409.56;1629490;86;21630;-55
2022/06/25 11:42:09;;;;;;;4.85;1.85;;;;;;;33.40;29.39;94402.97;1656210;86;21499;-57
2022/06/25 11:44:41;;;;;;;3.77;1.80;;;;;;;33.69;27.10;94408.66;1655801;86;21093;-54
2022/06/25 11:47:11;;;;;;;4.97;1.62;;;;;;;33.77;28.57;94405.62;1655946;86;21090;-53
2022/06/25 11:49:39;;;;;;;3.22;1.98;;;;;;;33.89;27.19;94402.91;1656113;86;21020;-55
2022/06/25 11:52:07;;;;;;;3.40;1.98;;;;;;;34.06;26.83;94406.28;1655983;86;21197;-55